sensor_id;sensor_type;location;lat;lon;timestamp;P1;durP1;ratioP1;P2;durP2;ratioP2
17199;SDS011;8716;52.268;20.968;2023-03-21T00:00:54;9.83;;;9.33;;
17199;SDS011;8716;52.268;20.968;2023-03-21T00:03:25;11.93;;;11.33;;
17199;SDS011;8716;52.268;20.968;2023-03-21T00:05:54;19.47;;;10.80;;
17199;SDS011;8716;52.268;20.968;2023-03-21T00:08:25;8.07;;;7.13;;
17199;SDS011;8716;52.268;20.968;2023-03-21T00:10:54;11.70;;;11.10;;
17199;SDS011;8716;52.268;20.968;2023-03-21T00:13:25;14.30;;;13.57;;
17199;SDS011;8716;52.268;20.968;2023-03-21T00:16:02;14.30;;;13.60;;
17199;SDS011;8716;52.268;20.968;2023-03-21T00:18:44;17.67;;;12.70;;
17199;SDS011;8716;52.268;20.968;2023-03-21T00:21:14;9.43;;;8.93;;
17199;SDS011;8716;52.268;20.968;2023-03-21T00:24:06;34.97;;;15.13;;
17199;SDS011;8716;52.268;20.968;2023-03-21T00:26:34;15.33;;;13.53;;
17199;SDS011;8716;52.268;20.968;2023-03-21T00:29:07;19.53;;;11.80;;
17199;SDS011;8716;52.268;20.968;2023-03-21T00:31:38;10.83;;;10.10;;
17199;SDS011;8716;52.268;20.968;2023-03-21T00:34:06;14.77;;;12.70;;
17199;SDS011;8716;52.268;20.968;2023-03-21T00:36:38;12.90;;;12.20;;
17199;SDS011;8716;52.268;20.968;2023-03-21T00:39:06;11.43;;;10.83;;
17199;SDS011;8716;52.268;20.968;2023-03-21T00:41:35;14.50;;;13.80;;
17199;SDS011;8716;52.268;20.968;2023-03-21T00:44:11;17.57;;;16.53;;
17199;SDS011;8716;52.268;20.968;2023-03-21T00:46:41;15.53;;;13.40;;
17199;SDS011;8716;52.268;20.968;2023-03-21T00:49:26;16.10;;;15.30;;
17199;SDS011;8716;52.268;20.968;2023-03-21T00:52:00;12.17;;;11.57;;
17199;SDS011;8716;52.268;20.968;2023-03-21T00:54:50;13.37;;;12.20;;
17199;SDS011;8716;52.268;20.968;2023-03-21T00:57:18;19.33;;;18.33;;
17199;SDS011;8716;52.268;20.968;2023-03-21T00:59:59;13.80;;;13.10;;
17199;SDS011;8716;52.268;20.968;2023-03-21T01:02:29;11.50;;;10.80;;
17199;SDS011;8716;52.268;20.968;2023-03-21T01:04:57;19.53;;;13.93;;
17199;SDS011;8716;52.268;20.968;2023-03-21T01:07:25;16.13;;;12.60;;
17199;SDS011;8716;52.268;20.968;2023-03-21T01:09:54;13.57;;;11.33;;
17199;SDS011;8716;52.268;20.968;2023-03-21T01:12:24;17.23;;;16.33;;
17199;SDS011;8716;52.268;20.968;2023-03-21T01:14:54;19.97;;;18.97;;
17199;SDS011;8716;52.268;20.968;2023-03-21T01:17:24;15.90;;;15.00;;
17199;SDS011;8716;52.268;20.968;2023-03-21T01:19:52;10.93;;;9.43;;
17199;SDS011;8716;52.268;20.968;2023-03-21T01:22:23;11.17;;;9.20;;
17199;SDS011;8716;52.268;20.968;2023-03-21T01:24:52;20.43;;;19.43;;
17199;SDS011;8716;52.268;20.968;2023-03-21T01:27:31;11.70;;;11.10;;
17199;SDS011;8716;52.268;20.968;2023-03-21T01:29:59;13.10;;;12.40;;
17199;SDS011;8716;52.268;20.968;2023-03-21T01:32:29;16.47;;;15.13;;
17199;SDS011;8716;52.268;20.968;2023-03-21T01:34:58;14.40;;;10.97;;
17199;SDS011;8716;52.268;20.968;2023-03-21T01:37:26;14.57;;;11.73;;
17199;SDS011;8716;52.268;20.968;2023-03-21T01:39:54;16.47;;;11.90;;
17199;SDS011;8716;52.268;20.968;2023-03-21T01:42:22;12.87;;;12.17;;
17199;SDS011;8716;52.268;20.968;2023-03-21T01:44:51;12.27;;;11.67;;
17199;SDS011;8716;52.268;20.968;2023-03-21T01:47:25;15.07;;;14.27;;
17199;SDS011;8716;52.268;20.968;2023-03-21T01:50:14;18.60;;;13.47;;
17199;SDS011;8716;52.268;20.968;2023-03-21T01:52:52;17.93;;;17.03;;
17199;SDS011;8716;52.268;20.968;2023-03-21T01:55:28;14.37;;;13.67;;
17199;SDS011;8716;52.268;20.968;2023-03-21T01:58:15;11.10;;;10.50;;
17199;SDS011;8716;52.268;20.968;2023-03-21T02:00:57;10.87;;;10.30;;
17199;SDS011;8716;52.268;20.968;2023-03-21T02:03:37;13.70;;;12.00;;
17199;SDS011;8716;52.268;20.968;2023-03-21T02:06:27;13.93;;;13.23;;
17199;SDS011;8716;52.268;20.968;2023-03-21T02:09:09;14.73;;;13.53;;
17199;SDS011;8716;52.268;20.968;2023-03-21T02:11:41;25.87;;;20.97;;
17199;SDS011;8716;52.268;20.968;2023-03-21T02:14:13;15.77;;;14.97;;
17199;SDS011;8716;52.268;20.968;2023-03-21T02:17:16;21.33;;;11.90;;
17199;SDS011;8716;52.268;20.968;2023-03-21T02:23:09;10.77;;;10.17;;
17199;SDS011;8716;52.268;20.968;2023-03-21T02:29:14;8.63;;;8.13;;
17199;SDS011;8716;52.268;20.968;2023-03-21T02:31:57;10.47;;;9.83;;
17199;SDS011;8716;52.268;20.968;2023-03-21T02:37:54;7.93;;;7.53;;
17199;SDS011;8716;52.268;20.968;2023-03-21T02:40:29;17.53;;;12.03;;
17199;SDS011;8716;52.268;20.968;2023-03-21T02:43:03;17.50;;;13.63;;
17199;SDS011;8716;52.268;20.968;2023-03-21T02:45:49;15.70;;;14.80;;
17199;SDS011;8716;52.268;20.968;2023-03-21T02:48:20;9.80;;;9.30;;
17199;SDS011;8716;52.268;20.968;2023-03-21T02:51:10;11.13;;;10.53;;
17199;SDS011;8716;52.268;20.968;2023-03-21T02:53:47;18.57;;;17.53;;
17199;SDS011;8716;52.268;20.968;2023-03-21T02:56:37;12.77;;;11.50;;
17199;SDS011;8716;52.268;20.968;2023-03-21T02:59:06;12.90;;;12.20;;
17199;SDS011;8716;52.268;20.968;2023-03-21T03:01:36;49.70;;;12.80;;
17199;SDS011;8716;52.268;20.968;2023-03-21T03:04:16;12.27;;;11.43;;
17199;SDS011;8716;52.268;20.968;2023-03-21T03:06:48;7.80;;;7.40;;
17199;SDS011;8716;52.268;20.968;2023-03-21T03:09:41;10.77;;;10.17;;
17199;SDS011;8716;52.268;20.968;2023-03-21T03:12:25;10.17;;;9.67;;
17199;SDS011;8716;52.268;20.968;2023-03-21T03:15:01;8.90;;;8.00;;
17199;SDS011;8716;52.268;20.968;2023-03-21T03:17:43;6.83;;;6.43;;
17199;SDS011;8716;52.268;20.968;2023-03-21T03:20:19;8.50;;;8.00;;
17199;SDS011;8716;52.268;20.968;2023-03-21T03:22:58;7.07;;;6.67;;
17199;SDS011;8716;52.268;20.968;2023-03-21T03:25:36;9.73;;;9.23;;
17199;SDS011;8716;52.268;20.968;2023-03-21T03:28:12;7.33;;;6.93;;
17199;SDS011;8716;52.268;20.968;2023-03-21T03:30:44;7.50;;;7.10;;
17199;SDS011;8716;52.268;20.968;2023-03-21T03:33:37;14.70;;;11.30;;
17199;SDS011;8716;52.268;20.968;2023-03-21T03:36:08;7.27;;;6.87;;
17199;SDS011;8716;52.268;20.968;2023-03-21T03:38:55;14.27;;;9.67;;
17199;SDS011;8716;52.268;20.968;2023-03-21T03:41:26;8.00;;;7.60;;
17199;SDS011;8716;52.268;20.968;2023-03-21T03:44:10;12.00;;;8.33;;
17199;SDS011;8716;52.268;20.968;2023-03-21T03:46:46;9.87;;;9.37;;
17199;SDS011;8716;52.268;20.968;2023-03-21T03:49:22;10.03;;;9.53;;
17199;SDS011;8716;52.268;20.968;2023-03-21T03:51:53;11.03;;;10.43;;
17199;SDS011;8716;52.268;20.968;2023-03-21T03:54:37;14.87;;;14.10;;
17199;SDS011;8716;52.268;20.968;2023-03-21T03:57:08;10.70;;;8.47;;
17199;SDS011;8716;52.268;20.968;2023-03-21T03:59:40;11.60;;;11.00;;
17199;SDS011;8716;52.268;20.968;2023-03-21T04:02:24;10.10;;;8.30;;
17199;SDS011;8716;52.268;20.968;2023-03-21T04:04:54;9.27;;;8.80;;
17199;SDS011;8716;52.268;20.968;2023-03-21T04:07:23;13.47;;;12.20;;
17199;SDS011;8716;52.268;20.968;2023-03-21T04:09:56;14.07;;;13.37;;
17199;SDS011;8716;52.268;20.968;2023-03-21T04:12:27;11.23;;;10.63;;
17199;SDS011;8716;52.268;20.968;2023-03-21T04:15:18;6.40;;;6.00;;
17199;SDS011;8716;52.268;20.968;2023-03-21T04:17:52;19.57;;;10.60;;
17199;SDS011;8716;52.268;20.968;2023-03-21T04:20:21;14.37;;;12.60;;
17199;SDS011;8716;52.268;20.968;2023-03-21T04:23:02;7.37;;;6.97;;
17199;SDS011;8716;52.268;20.968;2023-03-21T04:25:32;11.80;;;11.20;;
17199;SDS011;8716;52.268;20.968;2023-03-21T04:28:05;11.17;;;9.10;;
17199;SDS011;8716;52.268;20.968;2023-03-21T04:30:41;10.07;;;9.57;;
17199;SDS011;8716;52.268;20.968;2023-03-21T04:33:26;13.30;;;12.60;;
17199;SDS011;8716;52.268;20.968;2023-03-21T04:35:55;10.57;;;7.30;;
17199;SDS011;8716;52.268;20.968;2023-03-21T04:38:28;8.47;;;8.00;;
17199;SDS011;8716;52.268;20.968;2023-03-21T04:41:01;5.63;;;5.33;;
17199;SDS011;8716;52.268;20.968;2023-03-21T04:43:33;6.27;;;5.93;;
17199;SDS011;8716;52.268;20.968;2023-03-21T04:46:01;11.87;;;11.27;;
17199;SDS011;8716;52.268;20.968;2023-03-21T04:48:30;7.57;;;7.17;;
17199;SDS011;8716;52.268;20.968;2023-03-21T04:50:59;8.10;;;7.70;;
17199;SDS011;8716;52.268;20.968;2023-03-21T04:53:27;5.57;;;5.27;;
17199;SDS011;8716;52.268;20.968;2023-03-21T04:55:56;10.87;;;10.27;;
17199;SDS011;8716;52.268;20.968;2023-03-21T04:58:26;9.70;;;9.20;;
17199;SDS011;8716;52.268;20.968;2023-03-21T05:00:56;8.33;;;7.90;;
17199;SDS011;8716;52.268;20.968;2023-03-21T05:03:24;15.73;;;10.10;;
17199;SDS011;8716;52.268;20.968;2023-03-21T05:05:56;11.70;;;10.00;;
17199;SDS011;8716;52.268;20.968;2023-03-21T05:08:27;11.60;;;8.20;;
17199;SDS011;8716;52.268;20.968;2023-03-21T05:10:56;10.57;;;10.00;;
17199;SDS011;8716;52.268;20.968;2023-03-21T05:13:25;10.63;;;7.00;;
17199;SDS011;8716;52.268;20.968;2023-03-21T05:15:54;10.27;;;8.80;;
17199;SDS011;8716;52.268;20.968;2023-03-21T05:18:24;8.30;;;7.80;;
17199;SDS011;8716;52.268;20.968;2023-03-21T05:21:05;6.57;;;6.13;;
17199;SDS011;8716;52.268;20.968;2023-03-21T05:23:37;7.03;;;6.37;;
17199;SDS011;8716;52.268;20.968;2023-03-21T05:26:07;6.07;;;5.77;;
17199;SDS011;8716;52.268;20.968;2023-03-21T05:28:46;5.93;;;5.63;;
17199;SDS011;8716;52.268;20.968;2023-03-21T05:31:15;6.47;;;5.70;;
17199;SDS011;8716;52.268;20.968;2023-03-21T05:33:48;10.20;;;9.70;;
17199;SDS011;8716;52.268;20.968;2023-03-21T05:36:18;11.00;;;7.37;;
17199;SDS011;8716;52.268;20.968;2023-03-21T05:38:49;6.47;;;6.07;;
17199;SDS011;8716;52.268;20.968;2023-03-21T05:41:18;13.97;;;6.80;;
17199;SDS011;8716;52.268;20.968;2023-03-21T05:43:47;9.20;;;8.70;;
17199;SDS011;8716;52.268;20.968;2023-03-21T05:46:15;7.20;;;6.80;;
17199;SDS011;8716;52.268;20.968;2023-03-21T05:48:44;5.90;;;5.60;;
17199;SDS011;8716;52.268;20.968;2023-03-21T05:51:17;6.40;;;6.03;;
17199;SDS011;8716;52.268;20.968;2023-03-21T05:53:50;7.90;;;7.50;;
17199;SDS011;8716;52.268;20.968;2023-03-21T05:56:19;7.50;;;6.40;;
17199;SDS011;8716;52.268;20.968;2023-03-21T05:59:06;4.00;;;3.80;;
17199;SDS011;8716;52.268;20.968;2023-03-21T06:01:39;9.77;;;8.10;;
17199;SDS011;8716;52.268;20.968;2023-03-21T06:04:12;6.37;;;6.00;;
17199;SDS011;8716;52.268;20.968;2023-03-21T06:06:46;10.87;;;10.03;;
17199;SDS011;8716;52.268;20.968;2023-03-21T06:09:14;6.63;;;6.23;;
17199;SDS011;8716;52.268;20.968;2023-03-21T06:11:52;5.47;;;5.17;;
17199;SDS011;8716;52.268;20.968;2023-03-21T06:14:37;4.77;;;4.47;;
17199;SDS011;8716;52.268;20.968;2023-03-21T06:17:27;7.20;;;6.30;;
17199;SDS011;8716;52.268;20.968;2023-03-21T06:20:06;18.03;;;7.30;;
17199;SDS011;8716;52.268;20.968;2023-03-21T06:22:47;8.03;;;6.70;;
17199;SDS011;8716;52.268;20.968;2023-03-21T06:25:18;7.77;;;7.37;;
17199;SDS011;8716;52.268;20.968;2023-03-21T06:27:47;8.70;;;8.20;;
17199;SDS011;8716;52.268;20.968;2023-03-21T06:30:16;11.33;;;9.27;;
17199;SDS011;8716;52.268;20.968;2023-03-21T06:33:23;5.23;;;4.40;;
17199;SDS011;8716;52.268;20.968;2023-03-21T06:35:52;5.63;;;5.33;;
17199;SDS011;8716;52.268;20.968;2023-03-21T06:38:23;6.10;;;5.77;;
17199;SDS011;8716;52.268;20.968;2023-03-21T06:40:52;5.90;;;4.70;;
17199;SDS011;8716;52.268;20.968;2023-03-21T06:43:23;7.93;;;5.50;;
17199;SDS011;8716;52.268;20.968;2023-03-21T06:45:51;9.13;;;6.30;;
17199;SDS011;8716;52.268;20.968;2023-03-21T06:48:19;6.63;;;6.23;;
17199;SDS011;8716;52.268;20.968;2023-03-21T06:50:49;5.90;;;5.00;;
17199;SDS011;8716;52.268;20.968;2023-03-21T06:53:20;6.60;;;6.20;;
17199;SDS011;8716;52.268;20.968;2023-03-21T06:56:13;6.03;;;5.57;;
17199;SDS011;8716;52.268;20.968;2023-03-21T06:58:43;3.70;;;3.50;;
17199;SDS011;8716;52.268;20.968;2023-03-21T07:01:32;5.27;;;4.97;;
17199;SDS011;8716;52.268;20.968;2023-03-21T07:04:04;10.07;;;8.10;;
17199;SDS011;8716;52.268;20.968;2023-03-21T07:06:33;5.83;;;5.53;;
17199;SDS011;8716;52.268;20.968;2023-03-21T07:09:03;7.13;;;6.73;;
17199;SDS011;8716;52.268;20.968;2023-03-21T07:11:33;6.33;;;5.97;;
17199;SDS011;8716;52.268;20.968;2023-03-21T07:14:03;5.40;;;4.43;;
17199;SDS011;8716;52.268;20.968;2023-03-21T07:16:32;5.93;;;5.63;;
17199;SDS011;8716;52.268;20.968;2023-03-21T07:19:00;6.67;;;6.27;;
17199;SDS011;8716;52.268;20.968;2023-03-21T07:21:28;6.23;;;4.20;;
17199;SDS011;8716;52.268;20.968;2023-03-21T07:23:56;4.00;;;3.80;;
17199;SDS011;8716;52.268;20.968;2023-03-21T07:26:25;4.47;;;4.17;;
17199;SDS011;8716;52.268;20.968;2023-03-21T07:28:55;5.90;;;4.73;;
17199;SDS011;8716;52.268;20.968;2023-03-21T07:31:25;7.90;;;7.27;;
17199;SDS011;8716;52.268;20.968;2023-03-21T07:33:55;5.10;;;4.80;;
17199;SDS011;8716;52.268;20.968;2023-03-21T07:36:23;12.63;;;5.27;;
17199;SDS011;8716;52.268;20.968;2023-03-21T07:38:51;5.60;;;4.87;;
17199;SDS011;8716;52.268;20.968;2023-03-21T07:41:22;7.10;;;6.70;;
17199;SDS011;8716;52.268;20.968;2023-03-21T07:43:50;6.43;;;6.03;;
17199;SDS011;8716;52.268;20.968;2023-03-21T07:46:20;6.33;;;5.87;;
17199;SDS011;8716;52.268;20.968;2023-03-21T07:48:48;8.93;;;6.50;;
17199;SDS011;8716;52.268;20.968;2023-03-21T07:51:17;7.20;;;6.20;;
17199;SDS011;8716;52.268;20.968;2023-03-21T07:53:47;4.13;;;3.90;;
17199;SDS011;8716;52.268;20.968;2023-03-21T07:56:18;4.07;;;3.27;;
17199;SDS011;8716;52.268;20.968;2023-03-21T07:58:49;6.90;;;5.73;;
17199;SDS011;8716;52.268;20.968;2023-03-21T08:01:17;4.30;;;3.77;;
17199;SDS011;8716;52.268;20.968;2023-03-21T08:03:47;6.87;;;6.47;;
17199;SDS011;8716;52.268;20.968;2023-03-21T08:06:16;3.70;;;3.50;;
17199;SDS011;8716;52.268;20.968;2023-03-21T08:08:45;6.90;;;6.50;;
17199;SDS011;8716;52.268;20.968;2023-03-21T08:11:13;5.23;;;4.93;;
17199;SDS011;8716;52.268;20.968;2023-03-21T08:13:43;6.60;;;6.20;;
17199;SDS011;8716;52.268;20.968;2023-03-21T08:16:11;5.10;;;4.80;;
17199;SDS011;8716;52.268;20.968;2023-03-21T08:18:41;4.37;;;4.10;;
17199;SDS011;8716;52.268;20.968;2023-03-21T08:21:09;4.57;;;4.27;;
17199;SDS011;8716;52.268;20.968;2023-03-21T08:23:37;6.67;;;6.27;;
17199;SDS011;8716;52.268;20.968;2023-03-21T08:26:06;4.13;;;3.90;;
17199;SDS011;8716;52.268;20.968;2023-03-21T08:28:34;4.73;;;4.43;;
17199;SDS011;8716;52.268;20.968;2023-03-21T08:31:07;4.30;;;4.00;;
17199;SDS011;8716;52.268;20.968;2023-03-21T08:33:37;6.67;;;5.17;;
17199;SDS011;8716;52.268;20.968;2023-03-21T08:36:07;4.93;;;4.13;;
17199;SDS011;8716;52.268;20.968;2023-03-21T08:38:36;7.03;;;6.63;;
17199;SDS011;8716;52.268;20.968;2023-03-21T08:41:05;6.40;;;5.87;;
17199;SDS011;8716;52.268;20.968;2023-03-21T08:43:33;5.63;;;4.57;;
17199;SDS011;8716;52.268;20.968;2023-03-21T08:46:01;5.97;;;5.53;;
17199;SDS011;8716;52.268;20.968;2023-03-21T08:48:30;3.60;;;3.40;;
17199;SDS011;8716;52.268;20.968;2023-03-21T08:50:59;3.70;;;3.50;;
17199;SDS011;8716;52.268;20.968;2023-03-21T08:53:28;6.10;;;5.77;;
17199;SDS011;8716;52.268;20.968;2023-03-21T08:55:57;4.40;;;4.10;;
17199;SDS011;8716;52.268;20.968;2023-03-21T08:58:27;6.67;;;6.23;;
17199;SDS011;8716;52.268;20.968;2023-03-21T09:00:56;3.60;;;3.40;;
17199;SDS011;8716;52.268;20.968;2023-03-21T09:03:24;5.30;;;5.00;;
17199;SDS011;8716;52.268;20.968;2023-03-21T09:05:52;3.40;;;3.20;;
17199;SDS011;8716;52.268;20.968;2023-03-21T09:08:20;3.20;;;3.00;;
17199;SDS011;8716;52.268;20.968;2023-03-21T09:10:52;6.77;;;6.37;;
17199;SDS011;8716;52.268;20.968;2023-03-21T09:13:21;10.20;;;5.83;;
17199;SDS011;8716;52.268;20.968;2023-03-21T09:15:50;3.53;;;3.33;;
17199;SDS011;8716;52.268;20.968;2023-03-21T09:18:19;4.53;;;4.23;;
17199;SDS011;8716;52.268;20.968;2023-03-21T09:21:07;9.17;;;4.23;;
17199;SDS011;8716;52.268;20.968;2023-03-21T09:23:38;4.40;;;4.10;;
17199;SDS011;8716;52.268;20.968;2023-03-21T09:26:08;6.57;;;6.17;;
17199;SDS011;8716;52.268;20.968;2023-03-21T09:28:36;4.40;;;4.13;;
17199;SDS011;8716;52.268;20.968;2023-03-21T09:31:06;9.60;;;6.00;;
17199;SDS011;8716;52.268;20.968;2023-03-21T09:33:36;6.77;;;6.37;;
17199;SDS011;8716;52.268;20.968;2023-03-21T09:36:07;5.20;;;4.90;;
17199;SDS011;8716;52.268;20.968;2023-03-21T09:38:38;4.37;;;4.07;;
17199;SDS011;8716;52.268;20.968;2023-03-21T09:41:13;6.40;;;3.30;;
17199;SDS011;8716;52.268;20.968;2023-03-21T09:43:55;3.30;;;3.10;;
17199;SDS011;8716;52.268;20.968;2023-03-21T09:46:35;5.33;;;5.03;;
17199;SDS011;8716;52.268;20.968;2023-03-21T09:49:09;4.53;;;4.23;;
17199;SDS011;8716;52.268;20.968;2023-03-21T09:51:46;3.47;;;3.27;;
17199;SDS011;8716;52.268;20.968;2023-03-21T09:54:19;3.13;;;2.93;;
17199;SDS011;8716;52.268;20.968;2023-03-21T09:56:54;2.83;;;2.63;;
17199;SDS011;8716;52.268;20.968;2023-03-21T09:59:27;4.67;;;3.37;;
17199;SDS011;8716;52.268;20.968;2023-03-21T10:02:01;3.50;;;3.27;;
17199;SDS011;8716;52.268;20.968;2023-03-21T10:04:41;4.30;;;4.00;;
17199;SDS011;8716;52.268;20.968;2023-03-21T10:07:12;5.20;;;4.90;;
17199;SDS011;8716;52.268;20.968;2023-03-21T10:09:43;4.60;;;3.17;;
17199;SDS011;8716;52.268;20.968;2023-03-21T10:12:15;8.87;;;6.43;;
17199;SDS011;8716;52.268;20.968;2023-03-21T10:14:49;7.87;;;7.40;;
17199;SDS011;8716;52.268;20.968;2023-03-21T10:17:24;5.33;;;5.03;;
17199;SDS011;8716;52.268;20.968;2023-03-21T10:20:00;4.90;;;4.60;;
17199;SDS011;8716;52.268;20.968;2023-03-21T10:22:39;3.40;;;3.20;;
17199;SDS011;8716;52.268;20.968;2023-03-21T10:25:09;3.10;;;2.90;;
17199;SDS011;8716;52.268;20.968;2023-03-21T10:27:43;3.87;;;3.67;;
17199;SDS011;8716;52.268;20.968;2023-03-21T10:30:17;2.50;;;2.30;;
17199;SDS011;8716;52.268;20.968;2023-03-21T10:32:55;4.87;;;4.37;;
17199;SDS011;8716;52.268;20.968;2023-03-21T10:35:27;2.50;;;2.30;;
17199;SDS011;8716;52.268;20.968;2023-03-21T10:37:58;2.97;;;2.77;;
17199;SDS011;8716;52.268;20.968;2023-03-21T10:40:27;3.57;;;3.37;;
17199;SDS011;8716;52.268;20.968;2023-03-21T10:43:14;4.50;;;4.20;;
17199;SDS011;8716;52.268;20.968;2023-03-21T10:45:44;4.37;;;4.07;;
17199;SDS011;8716;52.268;20.968;2023-03-21T10:48:13;3.60;;;2.60;;
17199;SDS011;8716;52.268;20.968;2023-03-21T10:50:42;4.87;;;3.70;;
17199;SDS011;8716;52.268;20.968;2023-03-21T10:53:17;4.83;;;4.53;;
17199;SDS011;8716;52.268;20.968;2023-03-21T10:55:49;4.33;;;4.07;;
17199;SDS011;8716;52.268;20.968;2023-03-21T10:58:24;3.23;;;3.03;;
17199;SDS011;8716;52.268;20.968;2023-03-21T11:00:55;3.00;;;2.80;;
17199;SDS011;8716;52.268;20.968;2023-03-21T11:03:26;6.40;;;6.03;;
17199;SDS011;8716;52.268;20.968;2023-03-21T11:05:59;8.43;;;3.30;;
17199;SDS011;8716;52.268;20.968;2023-03-21T11:08:29;3.80;;;3.60;;
17199;SDS011;8716;52.268;20.968;2023-03-21T11:11:04;4.83;;;4.53;;
17199;SDS011;8716;52.268;20.968;2023-03-21T11:13:37;7.40;;;7.00;;
17199;SDS011;8716;52.268;20.968;2023-03-21T11:16:08;7.17;;;6.77;;
17199;SDS011;8716;52.268;20.968;2023-03-21T11:18:39;5.63;;;5.33;;
17199;SDS011;8716;52.268;20.968;2023-03-21T11:21:09;3.40;;;3.20;;
17199;SDS011;8716;52.268;20.968;2023-03-21T11:23:40;4.20;;;3.50;;
17199;SDS011;8716;52.268;20.968;2023-03-21T11:26:16;3.60;;;3.37;;
17199;SDS011;8716;52.268;20.968;2023-03-21T11:28:50;12.20;;;4.00;;
17199;SDS011;8716;52.268;20.968;2023-03-21T11:31:19;4.27;;;4.00;;
17199;SDS011;8716;52.268;20.968;2023-03-21T11:33:50;3.67;;;3.47;;
17199;SDS011;8716;52.268;20.968;2023-03-21T11:36:25;3.77;;;3.60;;
17199;SDS011;8716;52.268;20.968;2023-03-21T11:39:11;5.67;;;5.37;;
17199;SDS011;8716;52.268;20.968;2023-03-21T11:42:01;5.20;;;4.90;;
17199;SDS011;8716;52.268;20.968;2023-03-21T11:44:32;4.83;;;4.53;;
17199;SDS011;8716;52.268;20.968;2023-03-21T11:47:01;4.60;;;4.30;;
17199;SDS011;8716;52.268;20.968;2023-03-21T11:49:30;4.03;;;3.73;;
17199;SDS011;8716;52.268;20.968;2023-03-21T11:52:06;3.70;;;3.50;;
17199;SDS011;8716;52.268;20.968;2023-03-21T11:54:56;4.40;;;4.10;;
17199;SDS011;8716;52.268;20.968;2023-03-21T11:57:47;4.67;;;4.37;;
17199;SDS011;8716;52.268;20.968;2023-03-21T12:00:39;4.50;;;4.20;;
17199;SDS011;8716;52.268;20.968;2023-03-21T12:03:18;3.57;;;3.37;;
17199;SDS011;8716;52.268;20.968;2023-03-21T12:06:16;3.80;;;3.60;;
17199;SDS011;8716;52.268;20.968;2023-03-21T12:08:57;3.93;;;3.73;;
17199;SDS011;8716;52.268;20.968;2023-03-21T12:11:39;4.80;;;4.50;;
17199;SDS011;8716;52.268;20.968;2023-03-21T12:14:22;4.40;;;4.10;;
17199;SDS011;8716;52.268;20.968;2023-03-21T12:17:05;2.73;;;2.53;;
17199;SDS011;8716;52.268;20.968;2023-03-21T12:19:47;6.00;;;5.67;;
17199;SDS011;8716;52.268;20.968;2023-03-21T12:22:44;2.50;;;2.30;;
17199;SDS011;8716;52.268;20.968;2023-03-21T12:25:23;3.67;;;3.47;;
17199;SDS011;8716;52.268;20.968;2023-03-21T12:27:58;3.40;;;3.20;;
17199;SDS011;8716;52.268;20.968;2023-03-21T12:30:41;4.90;;;4.60;;
17199;SDS011;8716;52.268;20.968;2023-03-21T12:33:27;5.00;;;4.63;;
17199;SDS011;8716;52.268;20.968;2023-03-21T12:36:18;3.70;;;3.53;;
17199;SDS011;8716;52.268;20.968;2023-03-21T12:39:03;4.40;;;4.10;;
17199;SDS011;8716;52.268;20.968;2023-03-21T12:41:48;4.70;;;4.40;;
17199;SDS011;8716;52.268;20.968;2023-03-21T12:44:26;6.37;;;4.80;;
17199;SDS011;8716;52.268;20.968;2023-03-21T12:47:02;4.43;;;4.13;;
17199;SDS011;8716;52.268;20.968;2023-03-21T12:49:38;5.00;;;4.70;;
17199;SDS011;8716;52.268;20.968;2023-03-21T12:52:12;3.07;;;2.87;;
17199;SDS011;8716;52.268;20.968;2023-03-21T12:54:45;3.40;;;3.20;;
17199;SDS011;8716;52.268;20.968;2023-03-21T12:57:22;4.53;;;4.23;;
17199;SDS011;8716;52.268;20.968;2023-03-21T12:59:58;7.17;;;3.67;;
17199;SDS011;8716;52.268;20.968;2023-03-21T13:02:37;4.90;;;4.60;;
17199;SDS011;8716;52.268;20.968;2023-03-21T13:05:14;7.60;;;5.10;;
17199;SDS011;8716;52.268;20.968;2023-03-21T13:07:46;3.90;;;3.70;;
17199;SDS011;8716;52.268;20.968;2023-03-21T13:10:19;3.33;;;3.07;;
17199;SDS011;8716;52.268;20.968;2023-03-21T13:12:54;5.07;;;4.07;;
17199;SDS011;8716;52.268;20.968;2023-03-21T13:15:38;7.10;;;3.97;;
17199;SDS011;8716;52.268;20.968;2023-03-21T13:18:18;7.03;;;3.93;;
17199;SDS011;8716;52.268;20.968;2023-03-21T13:20:59;6.00;;;5.13;;
17199;SDS011;8716;52.268;20.968;2023-03-21T13:23:35;4.97;;;4.67;;
17199;SDS011;8716;52.268;20.968;2023-03-21T13:26:06;4.50;;;4.20;;
17199;SDS011;8716;52.268;20.968;2023-03-21T13:28:38;4.80;;;4.50;;
17199;SDS011;8716;52.268;20.968;2023-03-21T13:31:14;4.00;;;3.80;;
17199;SDS011;8716;52.268;20.968;2023-03-21T13:33:45;3.20;;;3.00;;
17199;SDS011;8716;52.268;20.968;2023-03-21T13:36:17;7.10;;;4.70;;
17199;SDS011;8716;52.268;20.968;2023-03-21T13:38:52;4.57;;;4.27;;
17199;SDS011;8716;52.268;20.968;2023-03-21T13:41:24;3.83;;;3.63;;
17199;SDS011;8716;52.268;20.968;2023-03-21T13:44:04;3.27;;;3.07;;
17199;SDS011;8716;52.268;20.968;2023-03-21T13:46:36;4.10;;;3.03;;
17199;SDS011;8716;52.268;20.968;2023-03-21T13:49:27;4.57;;;4.27;;
17199;SDS011;8716;52.268;20.968;2023-03-21T13:51:59;4.70;;;4.40;;
17199;SDS011;8716;52.268;20.968;2023-03-21T13:54:42;4.07;;;3.87;;
17199;SDS011;8716;52.268;20.968;2023-03-21T14:00:18;3.90;;;3.70;;
17199;SDS011;8716;52.268;20.968;2023-03-21T14:02:51;3.60;;;3.40;;
17199;SDS011;8716;52.268;20.968;2023-03-21T14:05:24;3.80;;;3.60;;
17199;SDS011;8716;52.268;20.968;2023-03-21T14:07:55;3.70;;;3.50;;
17199;SDS011;8716;52.268;20.968;2023-03-21T14:10:39;3.60;;;3.40;;
17199;SDS011;8716;52.268;20.968;2023-03-21T14:13:14;4.13;;;3.90;;
17199;SDS011;8716;52.268;20.968;2023-03-21T14:15:46;4.70;;;4.40;;
17199;SDS011;8716;52.268;20.968;2023-03-21T14:18:22;3.50;;;3.30;;
17199;SDS011;8716;52.268;20.968;2023-03-21T14:21:13;3.60;;;3.40;;
17199;SDS011;8716;52.268;20.968;2023-03-21T14:23:55;3.80;;;2.87;;
17199;SDS011;8716;52.268;20.968;2023-03-21T14:26:25;4.60;;;3.17;;
17199;SDS011;8716;52.268;20.968;2023-03-21T14:28:56;4.87;;;4.57;;
17199;SDS011;8716;52.268;20.968;2023-03-21T14:31:25;5.67;;;5.37;;
17199;SDS011;8716;52.268;20.968;2023-03-21T14:33:55;3.77;;;3.57;;
17199;SDS011;8716;52.268;20.968;2023-03-21T14:36:25;7.77;;;3.50;;
17199;SDS011;8716;52.268;20.968;2023-03-21T14:39:01;4.60;;;4.30;;
17199;SDS011;8716;52.268;20.968;2023-03-21T14:41:33;3.00;;;2.80;;
17199;SDS011;8716;52.268;20.968;2023-03-21T14:44:16;2.90;;;2.70;;
17199;SDS011;8716;52.268;20.968;2023-03-21T14:46:52;4.80;;;4.20;;
17199;SDS011;8716;52.268;20.968;2023-03-21T14:49:26;3.93;;;3.73;;
17199;SDS011;8716;52.268;20.968;2023-03-21T14:51:56;5.27;;;3.63;;
17199;SDS011;8716;52.268;20.968;2023-03-21T14:54:28;4.30;;;4.00;;
17199;SDS011;8716;52.268;20.968;2023-03-21T14:56:59;5.97;;;5.50;;
17199;SDS011;8716;52.268;20.968;2023-03-21T14:59:30;3.77;;;3.57;;
17199;SDS011;8716;52.268;20.968;2023-03-21T15:02:04;3.80;;;3.60;;
17199;SDS011;8716;52.268;20.968;2023-03-21T15:04:45;3.90;;;3.20;;
17199;SDS011;8716;52.268;20.968;2023-03-21T15:07:23;6.90;;;5.87;;
17199;SDS011;8716;52.268;20.968;2023-03-21T15:09:55;3.63;;;2.77;;
17199;SDS011;8716;52.268;20.968;2023-03-21T15:12:29;3.40;;;3.20;;
17199;SDS011;8716;52.268;20.968;2023-03-21T15:14:58;4.30;;;4.03;;
17199;SDS011;8716;52.268;20.968;2023-03-21T15:17:27;5.03;;;4.73;;
17199;SDS011;8716;52.268;20.968;2023-03-21T15:19:56;3.27;;;3.07;;
17199;SDS011;8716;52.268;20.968;2023-03-21T15:22:26;5.37;;;3.47;;
17199;SDS011;8716;52.268;20.968;2023-03-21T15:25:01;3.40;;;3.20;;
17199;SDS011;8716;52.268;20.968;2023-03-21T15:27:33;4.70;;;4.40;;
17199;SDS011;8716;52.268;20.968;2023-03-21T15:30:14;7.00;;;4.80;;
17199;SDS011;8716;52.268;20.968;2023-03-21T15:32:48;3.27;;;3.07;;
17199;SDS011;8716;52.268;20.968;2023-03-21T15:35:19;4.50;;;3.20;;